Time;durP1;ratioP1;P1;durP2;ratioP2;P2;SDS_P1;SDS_P2;PMS_P1;PMS_P2;Temp;Humidity;BMP_temperature;BMP_pressure;BME280_temperature;BME280_humidity;BME280_pressure;Samples;Min_cycle;Max_cycle;Signal;HPM_P1;HPM_P2
2023/04/11 00:00:09;;;;;;;;;2.33;0.00;;;;;11.77;100.00;101087.75;4984376;28;45977;-82
2023/04/11 00:02:37;;;;;;;;;1.33;1.33;;;;;11.68;100.00;101090.88;5002491;28;46375;-81
2023/04/11 00:05:04;;;;;;;;;5.00;1.00;;;;;11.67;100.00;101103.78;5006354;28;45424;-78
2023/04/11 00:07:30;;;;;;;;;0.00;0.00;;;;;11.65;100.00;101104.00;5000966;28;45417;-79
2023/04/11 00:09:55;;;;;;;;;3.33;1.00;;;;;11.59;100.00;101093.84;5011480;28;45723;-81
2023/04/11 00:12:21;;;;;;;;;3.00;1.67;;;;;11.59;100.00;101095.75;4992695;28;46991;-80
2023/04/11 00:14:47;;;;;;;;;1.33;1.00;;;;;11.53;100.00;101096.56;5003048;28;45664;-80
2023/04/11 00:17:14;;;;;;;;;1.00;1.00;;;;;11.53;100.00;101102.06;5007299;28;45759;-80
2023/04/11 00:19:42;;;;;;;;;2.00;1.00;;;;;11.52;100.00;101103.13;4994355;28;45580;-81
2023/04/11 00:22:10;;;;;;;;;1.00;1.00;;;;;11.35;100.00;101078.75;4976813;28;47901;-80
2023/04/11 00:24:35;;;;;;;;;2.00;1.00;;;;;11.48;100.00;101103.53;4995473;28;45503;-80
2023/04/11 00:27:01;;;;;;;;;2.67;0.00;;;;;11.48;100.00;101099.91;4989219;28;45428;-82
2023/04/11 00:29:27;;;;;;;;;2.67;1.00;;;;;11.37;100.00;101068.41;4993928;28;45507;-79
2023/04/11 00:31:54;;;;;;;;;1.00;1.00;;;;;11.33;100.00;101083.59;4993476;28;45883;-81
2023/04/11 00:34:20;;;;;;;;;2.00;2.00;;;;;11.34;100.00;101093.53;5007523;28;45557;-79
2023/04/11 00:36:49;;;;;;;;;6.00;2.00;;;;;11.31;100.00;101096.69;4976806;28;45565;-78
2023/04/11 00:39:17;;;;;;;;;3.00;1.00;;;;;11.33;100.00;101110.22;4997049;28;45395;-81
2023/04/11 00:41:43;;;;;;;;;2.33;1.00;;;;;11.34;100.00;101111.91;4998801;28;45571;-81
2023/04/11 00:44:10;;;;;;;;;0.00;0.00;;;;;11.32;100.00;101109.38;5001089;28;45535;-81
2023/04/11 00:46:36;;;;;;;;;3.00;1.33;;;;;11.29;100.00;101104.31;4995806;28;45848;-82
2023/04/11 00:49:02;;;;;;;;;2.00;1.00;;;;;11.28;100.00;101105.34;5000352;28;45528;-80
2023/04/11 00:51:28;;;;;;;;;4.33;1.00;;;;;11.29;100.00;101107.03;4980697;28;45506;-81
2023/04/11 00:53:53;;;;;;;;;3.33;1.00;;;;;11.20;100.00;101095.38;5003811;28;45767;-78
2023/04/11 00:56:19;;;;;;;;;1.00;1.00;;;;;11.28;100.00;101116.31;5000140;28;45419;-79
2023/04/11 00:58:45;;;;;;;;;2.33;1.33;;;;;11.26;100.00;101110.19;4979432;28;46923;-79
2023/04/11 01:01:10;;;;;;;;;3.67;1.00;;;;;11.22;100.00;101111.66;4991031;28;47010;-79
2023/04/11 01:03:38;;;;;;;;;3.00;1.00;;;;;11.22;100.00;101112.50;4978128;28;45484;-80
2023/04/11 01:06:06;;;;;;;;;1.67;1.00;;;;;11.16;100.00;101107.81;4992430;28;45440;-80
2023/04/11 01:08:32;;;;;;;;;0.67;0.67;;;;;11.17;100.00;101109.53;5002939;28;45596;-78
2023/04/11 01:10:58;;;;;;;;;2.33;1.00;;;;;11.19;100.00;101107.41;5006093;28;45757;-80
2023/04/11 01:13:24;;;;;;;;;6.00;1.33;;;;;11.00;100.00;101086.19;4994314;28;45681;-79
2023/04/11 01:15:50;;;;;;;;;1.33;1.00;;;;;11.17;100.00;101125.13;5000899;28;45637;-79
2023/04/11 01:18:15;;;;;;;;;2.00;2.00;;;;;11.11;100.00;101127.66;5000150;28;45792;-80
2023/04/11 01:20:41;;;;;;;;;1.33;0.00;;;;;11.09;100.00;101134.38;4979327;28;47427;-78
2023/04/11 01:23:08;;;;;;;;;1.00;0.00;;;;;10.95;100.00;101112.34;4992830;28;45400;-79
2023/04/11 01:25:33;;;;;;;;;1.33;1.33;;;;;11.12;100.00;101143.09;4975596;28;45796;-79
2023/04/11 01:27:59;;;;;;;;;3.33;1.00;;;;;11.07;100.00;101122.78;4974122;28;46540;-78
2023/04/11 01:30:24;;;;;;;;;1.00;1.00;;;;;11.09;100.00;101120.66;4991068;28;46229;-79
2023/04/11 01:32:50;;;;;;;;;3.33;2.00;;;;;11.05;100.00;101120.22;4990522;28;45841;-78
2023/04/11 01:35:16;;;;;;;;;1.00;1.00;;;;;11.06;100.00;101130.16;4992936;28;45946;-78
2023/04/11 01:37:42;;;;;;;;;1.67;1.00;;;;;11.06;100.00;101141.16;4992733;28;46426;-79
2023/04/11 01:40:08;;;;;;;;;4.67;2.00;;;;;11.03;100.00;101141.56;4991943;28;46447;-79
2023/04/11 01:42:35;;;;;;;;;1.00;1.00;;;;;10.93;100.00;101124.59;5000593;28;45753;-78
2023/04/11 01:45:03;;;;;;;;;2.67;1.33;;;;;11.03;100.00;101149.78;4996292;28;45795;-78
2023/04/11 01:47:28;;;;;;;;;2.00;2.00;;;;;11.01;100.00;101146.38;4993621;28;46317;-79
2023/04/11 01:49:54;;;;;;;;;2.00;1.00;;;;;11.03;100.00;101146.19;4992767;28;45616;-77
2023/04/11 01:52:20;;;;;;;;;0.00;0.00;;;;;11.02;100.00;101159.06;5005769;28;45857;-79
2023/04/11 01:54:45;;;;;;;;;2.00;1.00;;;;;11.00;100.00;101160.31;4998631;28;45799;-78
2023/04/11 01:57:11;;;;;;;;;1.67;0.00;;;;;10.99;100.00;101164.09;4993476;28;45446;-78
2023/04/11 01:59:36;;;;;;;;;1.00;1.00;;;;;10.99;100.00;101164.09;4988838;28;45505;-77
2023/04/11 02:02:02;;;;;;;;;2.00;2.00;;;;;10.97;100.00;101156.06;4995183;28;45447;-78
2023/04/11 02:04:27;;;;;;;;;0.00;0.00;;;;;10.97;100.00;101164.28;4994524;28;45476;-77
2023/04/11 02:06:53;;;;;;;;;1.00;1.00;;;;;10.94;100.00;101167.44;4998845;28;45523;-80
2023/04/11 02:09:18;;;;;;;;;2.00;2.00;;;;;10.98;100.00;101176.13;5008275;28;45516;-79
2023/04/11 02:11:44;;;;;;;;;1.67;1.00;;;;;10.81;100.00;101145.41;5004818;28;45464;-79
2023/04/11 02:14:13;;;;;;;;;1.00;1.00;;;;;10.91;100.00;101162.34;4994249;28;46051;-81
2023/04/11 02:17:09;;;;;;;;;1.67;1.00;;;;;10.87;100.00;101163.84;4994601;28;45929;-78
2023/04/11 02:19:36;;;;;;;;;1.00;1.00;;;;;10.76;100.00;101159.72;4963156;28;48444;-79
2023/04/11 02:22:01;;;;;;;;;2.00;2.00;;;;;10.83;100.00;101182.56;4974562;28;45742;-80
2023/04/11 02:24:27;;;;;;;;;3.00;2.00;;;;;10.83;100.00;101176.25;5004867;28;45472;-79
2023/04/11 02:26:53;;;;;;;;;3.67;1.67;;;;;10.82;100.00;101163.56;4974622;28;47747;-79
2023/04/11 02:29:18;;;;;;;;;2.00;1.00;;;;;10.80;100.00;101162.94;4982213;28;46109;-80
2023/04/11 02:31:44;;;;;;;;;2.00;2.00;;;;;10.82;100.00;101169.06;4992166;28;45438;-80
2023/04/11 02:34:09;;;;;;;;;1.33;1.00;;;;;10.83;100.00;101170.75;4985697;28;45572;-80
2023/04/11 02:36:35;;;;;;;;;3.33;1.00;;;;;10.86;100.00;101170.34;4992548;28;48022;-80
2023/04/11 02:39:00;;;;;;;;;1.00;1.00;;;;;10.84;100.00;101177.91;4990340;28;45923;-79
2023/04/11 02:41:26;;;;;;;;;3.33;3.00;;;;;10.86;100.00;101170.34;4991090;28;45437;-79
2023/04/11 02:43:53;;;;;;;;;4.67;2.67;;;;;10.86;100.00;101173.09;4973919;28;45506;-79
2023/04/11 02:46:18;;;;;;;;;5.33;2.67;;;;;10.84;100.00;101172.44;4992273;28;45982;-79
2023/04/11 02:48:43;;;;;;;;;5.00;2.00;;;;;10.70;100.00;101160.53;4974634;28;47184;-81
2023/04/11 02:51:09;;;;;;;;;2.00;1.00;;;;;10.75;100.00;101153.41;4974568;28;45527;-79
2023/04/11 02:53:34;;;;;;;;;1.00;1.00;;;;;10.77;100.00;101164.16;4988041;28;45334;-81
2023/04/11 02:56:00;;;;;;;;;3.00;1.67;;;;;10.75;100.00;101167.13;4989880;28;45919;-81
2023/04/11 02:58:27;;;;;;;;;2.00;1.67;;;;;10.69;100.00;101176.16;4990199;28;45914;-81
2023/04/11 03:00:53;;;;;;;;;1.00;1.00;;;;;10.73;100.00;101177.44;4973768;28;46058;-80
2023/04/11 03:03:18;;;;;;;;;2.67;1.00;;;;;10.65;100.00;101168.50;4992693;28;45516;-80
2023/04/11 03:05:44;;;;;;;;;8.00;1.00;;;;;10.70;100.00;101191.56;4985611;28;45476;-82
2023/04/11 03:08:09;;;;;;;;;8.00;1.00;;;;;10.67;100.00;101200.16;4990700;28;45778;-80
2023/04/11 03:10:34;;;;;;;;;1.00;1.00;;;;;10.60;100.00;101185.56;4973996;28;46009;-80
2023/04/11 03:13:00;;;;;;;;;6.67;1.33;;;;;10.62;100.00;101191.69;4990841;28;45511;-79
2023/04/11 03:15:26;;;;;;;;;1.00;1.00;;;;;10.59;100.00;101183.88;4990568;28;45575;-81
2023/04/11 03:17:52;;;;;;;;;3.00;1.00;;;;;10.65;100.00;101185.81;4989541;28;46525;-82
2023/04/11 03:20:19;;;;;;;;;2.00;1.00;;;;;10.56;100.00;101187.84;4989340;28;45772;-78
2023/04/11 03:22:45;;;;;;;;;7.33;1.67;;;;;10.62;100.00;101199.91;4991765;28;45539;-79
2023/04/11 03:25:11;;;;;;;;;1.33;1.00;;;;;10.62;100.00;101207.31;4991796;28;45925;-78
2023/04/11 03:27:36;;;;;;;;;1.33;1.33;;;;;10.62;100.00;101202.66;4991792;28;45908;-80
2023/04/11 03:30:02;;;;;;;;;1.67;1.00;;;;;10.62;100.00;101204.56;4992014;28;45704;-80
2023/04/11 03:32:28;;;;;;;;;3.33;0.67;;;;;10.52;100.00;101202.16;4990557;28;45738;-79
2023/04/11 03:34:53;;;;;;;;;3.67;0.33;;;;;10.56;100.00;101208.94;4994753;28;46248;-80
2023/04/11 03:37:18;;;;;;;;;2.00;1.00;;;;;10.55;100.00;101212.72;4993153;28;47990;-79
2023/04/11 03:39:44;;;;;;;;;2.33;0.33;;;;;10.56;100.00;101208.94;4996006;28;45773;-80
2023/04/11 03:42:11;;;;;;;;;8.00;3.00;;;;;10.52;100.00;101204.88;5008754;28;45580;-80
2023/04/11 03:44:36;;;;;;;;;2.00;2.00;;;;;10.52;100.00;101213.13;4998646;28;45526;-81
2023/04/11 03:47:02;;;;;;;;;3.67;2.00;;;;;10.41;100.00;101201.63;5002975;28;46633;-79
2023/04/11 03:49:27;;;;;;;;;3.67;2.67;;;;;10.48;100.00;101209.06;4998778;28;45558;-79
2023/04/11 03:51:53;;;;;;;;;1.00;1.00;;;;;10.46;100.00;101213.91;5012040;28;45957;-79
2023/04/11 03:54:18;;;;;;;;;2.00;1.00;;;;;10.44;100.00;101216.84;5004848;28;45713;-81
2023/04/11 03:56:43;;;;;;;;;4.00;3.00;;;;;10.47;100.00;101218.34;4993003;28;45765;-78
2023/04/11 03:59:09;;;;;;;;;1.00;1.00;;;;;10.44;100.00;101216.84;4995789;28;45403;-80
2023/04/11 04:01:36;;;;;;;;;1.67;1.00;;;;;10.48;100.00;101209.06;5012164;28;45723;-80
2023/04/11 04:04:03;;;;;;;;;0.67;0.67;;;;;10.48;100.00;101223.66;5003523;28;45790;-79
2023/04/11 04:06:29;;;;;;;;;2.00;0.33;;;;;10.44;100.00;101218.75;4995112;28;47287;-81
2023/04/11 04:08:54;;;;;;;;;2.00;0.33;;;;;10.42;100.00;101222.53;5002127;28;45531;-79
2023/04/11 04:11:20;;;;;;;;;3.33;1.00;;;;;10.27;100.00;101197.06;5000597;28;45451;-80
2023/04/11 04:13:45;;;;;;;;;1.33;1.33;;;;;10.41;100.00;101222.72;5009236;28;45329;-78
2023/04/11 04:16:10;;;;;;;;;3.33;2.00;;;;;10.40;100.00;101218.28;5004116;28;45706;-80
2023/04/11 04:18:36;;;;;;;;;1.33;1.00;;;;;10.41;100.00;101220.81;5008064;28;45656;-79
2023/04/11 04:21:01;;;;;;;;;2.67;1.67;;;;;10.43;100.00;101220.63;5000455;28;45757;-78
2023/04/11 04:23:28;;;;;;;;;6.00;2.33;;;;;10.39;100.00;101211.97;4999663;28;45555;-80
2023/04/11 04:25:56;;;;;;;;;6.67;2.33;;;;;10.38;100.00;101210.25;4991308;28;46162;-80
2023/04/11 04:28:24;;;;;;;;;3.33;3.00;;;;;10.39;100.00;101216.59;4994413;28;45677;-79
2023/04/11 04:30:53;;;;;;;;;2.00;1.67;;;;;10.36;100.00;101215.09;4990320;28;45561;-80
2023/04/11 04:33:22;;;;;;;;;4.67;3.33;;;;;10.34;100.00;101222.66;4988071;28;46351;-78
2023/04/11 04:35:47;;;;;;;;;9.00;6.33;;;;;10.38;100.00;101223.97;4963174;28;47648;-78
2023/04/11 04:38:16;;;;;;;;;5.67;3.67;;;;;10.38;100.00;101218.47;4993236;28;45597;-78
2023/04/11 04:40:42;;;;;;;;;22.33;19.33;;;;;10.33;100.00;101206.38;4995661;28;45697;-80
2023/04/11 04:43:16;;;;;;;;;12.33;10.67;;;;;10.36;100.00;101217.84;4994628;28;45381;-81
2023/04/11 04:45:42;;;;;;;;;4.00;1.00;;;;;10.38;100.00;101220.38;4967724;28;47023;-80
2023/04/11 04:48:07;;;;;;;;;7.00;2.00;;;;;10.41;100.00;101220.81;5000585;28;45611;-80
2023/04/11 04:50:33;;;;;;;;;6.00;4.00;;;;;10.40;100.00;101221.91;5000322;28;45131;-79
2023/04/11 04:52:58;;;;;;;;;9.67;7.33;;;;;10.41;100.00;101222.72;5000028;28;45458;-81
2023/04/11 04:55:24;;;;;;;;;3.67;2.33;;;;;10.30;100.00;101206.75;4993407;28;45985;-82
2023/04/11 04:57:50;;;;;;;;;3.00;2.00;;;;;10.37;100.00;101221.41;4992997;28;45730;-80
2023/04/11 05:00:15;;;;;;;;;3.33;2.00;;;;;10.41;100.00;101239.19;4998640;28;45805;-79
2023/04/11 05:02:41;;;;;;;;;4.00;2.00;;;;;10.39;100.00;101241.28;5001411;28;46982;-81
2023/04/11 05:05:06;;;;;;;;;3.00;2.00;;;;;10.41;100.00;101248.25;5004005;28;46327;-81
2023/04/11 05:07:32;;;;;;;;;7.33;3.00;;;;;10.46;100.00;101242.16;4993383;28;45895;-80
2023/04/11 05:09:57;;;;;;;;;4.00;3.33;;;;;10.44;100.00;101249.75;4986827;28;45370;-80
2023/04/11 05:12:25;;;;;;;;;5.33;4.33;;;;;10.42;100.00;101246.38;4989364;28;45654;-80
2023/04/11 05:14:51;;;;;;;;;4.33;2.00;;;;;10.44;100.00;101254.41;4979387;28;47769;-80
2023/04/11 05:17:19;;;;;;;;;4.67;2.00;;;;;10.38;100.00;101251.38;4989669;28;45707;-82
2023/04/11 05:19:45;;;;;;;;;4.33;1.00;;;;;10.46;100.00;101266.84;4970877;28;45820;-81
2023/04/11 05:22:10;;;;;;;;;6.00;3.00;;;;;10.39;100.00;101255.81;4989456;28;45606;-80
2023/04/11 05:24:36;;;;;;;;;3.67;1.33;;;;;10.47;100.00;101267.72;4988969;28;46198;-82
2023/04/11 05:27:01;;;;;;;;;4.33;3.00;;;;;10.34;100.00;101241.84;4992194;28;45541;-82
2023/04/11 05:29:28;;;;;;;;;4.00;2.67;;;;;10.55;100.00;101267.56;4988516;28;45987;-79
2023/04/11 05:31:54;;;;;;;;;5.00;3.33;;;;;10.58;100.00;101265.31;4994674;28;45563;-80
2023/04/11 05:34:21;;;;;;;;;5.33;2.00;;;;;10.57;100.00;101255.38;4993882;28;45772;-80
2023/04/11 05:36:46;;;;;;;;;4.00;1.00;;;;;10.65;100.00;101273.59;4989399;28;45699;-82
2023/04/11 05:39:12;;;;;;;;;3.67;3.67;;;;;10.68;100.00;101272.34;4990445;28;45449;-86
2023/04/11 05:41:38;;;;;;;;;5.00;3.00;;;;;10.69;100.00;101271.28;5002887;28;45906;-82
2023/04/11 05:44:04;;;;;;;;;4.33;3.00;;;;;10.73;100.00;101265.22;4989479;28;47173;-82
2023/04/11 05:46:29;;;;;;;;;4.67;3.00;;;;;10.77;100.00;101269.25;4990292;28;45824;-82
2023/04/11 05:48:56;;;;;;;;;1.67;1.00;;;;;10.82;100.00;101274.16;4971754;28;45852;-84
2023/04/11 05:51:22;;;;;;;;;7.67;5.00;;;;;10.69;100.00;101247.47;4973275;28;46302;-81
2023/04/11 05:53:48;;;;;;;;;6.00;2.00;;;;;10.81;100.00;101261.50;4975510;28;48242;-80
2023/04/11 05:56:13;;;;;;;;;3.33;1.67;;;;;10.90;100.00;101270.44;4990108;28;46066;-79
2023/04/11 05:58:41;;;;;;;;;4.00;2.00;;;;;10.96;100.00;101277.88;4986211;28;45836;-81
2023/04/11 06:01:11;;;;;;;;;4.00;1.00;;;;;11.05;100.00;101268.44;4990095;28;45999;-76
2023/04/11 06:03:37;;;;;;;;;4.33;2.00;;;;;11.13;100.00;101265.53;4982951;28;46313;-75
2023/04/11 06:06:02;;;;;;;;;9.00;3.67;;;;;11.24;100.00;101266.91;4997932;28;45811;-76
2023/04/11 06:08:28;;;;;;;;;5.67;2.00;;;;;11.40;100.00;101265.72;4987085;28;45565;-74
2023/04/11 06:10:54;;;;;;;;;3.67;2.00;;;;;11.63;100.00;101279.19;4992449;28;45837;-76
2023/04/11 06:13:19;;;;;;;;;2.67;1.67;;;;;11.76;100.00;101281.13;4994742;28;45743;-74
2023/04/11 06:15:45;;;;;;;;;2.00;2.00;;;;;12.05;100.00;101276.47;4991567;28;45841;-76
2023/04/11 06:18:11;;;;;;;;;4.33;2.00;;;;;12.24;100.00;101287.72;4995728;28;45555;-74
2023/04/11 06:20:37;;;;;;;;;5.00;2.00;;;;;12.22;100.00;101287.94;4991635;28;45346;-72
2023/04/11 06:23:02;;;;;;;;;3.00;1.00;;;;;12.32;100.00;101290.25;5001429;28;45337;-76
2023/04/11 06:25:28;;;;;;;;;4.33;2.00;;;;;12.27;100.00;101268.06;4990492;28;45791;-75
2023/04/11 06:27:53;;;;;;;;;2.00;1.00;;;;;12.52;100.00;101290.34;4974374;28;45731;-76
2023/04/11 06:30:19;;;;;;;;;3.00;2.33;;;;;12.52;100.00;101288.44;4992647;28;46010;-73
2023/04/11 06:32:44;;;;;;;;;1.00;1.00;;;;;12.66;100.00;101296.72;4986119;28;46202;-75
2023/04/11 06:35:10;;;;;;;;;2.33;2.33;;;;;12.80;100.00;101301.19;4995521;28;45376;-75
2023/04/11 06:37:35;;;;;;;;;3.67;1.00;;;;;12.94;100.00;101306.69;4987016;28;46103;-73
2023/04/11 06:40:01;;;;;;;;;4.33;2.67;;;;;13.22;100.00;101300.97;4993770;28;45911;-74
2023/04/11 06:42:26;;;;;;;;;4.67;1.67;;;;;13.56;100.00;101310.06;5000133;28;45962;-75
2023/04/11 06:44:52;;;;;;;;;4.33;1.33;;;;;13.82;100.00;101309.16;5001218;28;45646;-74
2023/04/11 06:47:17;;;;;;;;;2.67;1.67;;;;;14.07;100.00;101311.19;4990652;28;45476;-74
2023/04/11 06:49:43;;;;;;;;;2.00;0.67;;;;;14.23;100.00;101318.97;4997392;28;45884;-73
2023/04/11 06:52:08;;;;;;;;;2.00;2.00;;;;;14.32;100.00;101311.28;4984701;28;47205;-75
2023/04/11 06:54:34;;;;;;;;;4.00;1.67;;;;;14.37;100.00;101313.38;4992901;28;45760;-74
2023/04/11 06:57:00;;;;;;;;;1.00;1.00;;;;;14.34;100.00;101327.63;4991017;28;45414;-74
2023/04/11 06:59:26;;;;;;;;;0.00;0.00;;;;;14.26;100.00;101321.28;5001657;28;45635;-74
2023/04/11 07:01:51;;;;;;;;;1.33;1.33;;;;;14.29;100.00;101323.59;4991238;28;45606;-75
2023/04/11 07:04:17;;;;;;;;;2.67;1.00;;;;;14.36;100.00;101331.88;4990216;28;45719;-76
2023/04/11 07:06:42;;;;;;;;;1.67;1.67;;;;;14.51;100.00;101337.09;4994974;28;45982;-76
2023/04/11 07:09:11;;;;;;;;;4.33;2.33;;;;;14.57;100.00;101321.56;4990517;28;45685;-76
2023/04/11 07:11:37;;;;;;;;;0.67;0.00;;;;;14.78;100.00;101328.69;4996255;28;45811;-74
2023/04/11 07:14:03;;;;;;;;;2.00;2.00;;;;;15.05;100.00;101339.56;5002779;28;46303;-75
2023/04/11 07:16:28;;;;;;;;;2.00;1.00;;;;;15.26;100.00;101338.31;4988046;28;45781;-74
2023/04/11 07:18:54;;;;;;;;;2.67;2.00;;;;;15.48;100.00;101336.84;4990539;28;45874;-76
2023/04/11 07:21:20;;;;;;;;;5.00;2.67;;;;;15.56;100.00;101315.50;4989833;28;45630;-76
2023/04/11 07:23:46;;;;;;;;;0.00;0.00;;;;;15.73;100.00;101337.88;4991036;28;45432;-74
2023/04/11 07:26:12;;;;;;;;;3.67;1.67;;;;;15.76;100.00;101309.75;5006505;28;45377;-74
2023/04/11 07:28:37;;;;;;;;;2.33;1.33;;;;;16.12;100.00;101316.38;4990109;28;45760;-75
2023/04/11 07:31:07;;;;;;;;;1.00;1.00;;;;;16.27;100.00;101322.34;5003262;28;45583;-75
2023/04/11 07:33:33;;;;;;;;;4.33;2.00;;;;;16.33;100.00;101321.44;5005712;28;45863;-75
2023/04/11 07:35:59;;;;;;;;;3.00;0.33;;;;;16.41;100.00;101323.03;4987733;28;45821;-76
2023/04/11 07:38:28;;;;;;;;;3.00;2.00;;;;;16.39;100.00;101328.81;4987126;28;45595;-75
2023/04/11 07:40:57;;;;;;;;;2.00;1.00;;;;;16.21;100.00;101329.69;4990727;28;45346;-76
2023/04/11 07:43:24;;;;;;;;;2.67;2.00;;;;;16.17;100.00;101333.16;4990845;28;45527;-75
2023/04/11 07:45:50;;;;;;;;;0.67;0.00;;;;;16.09;100.00;101326.00;4990407;28;45425;-75
2023/04/11 07:48:15;;;;;;;;;3.67;1.33;;;;;16.03;100.00;101316.72;4973048;28;46433;-74
2023/04/11 07:50:41;;;;;;;;;3.67;2.00;;;;;16.02;100.00;101326.09;4989985;28;46103;-74
2023/04/11 07:53:09;;;;;;;;;6.00;1.00;;;;;15.90;100.00;101300.28;4990956;28;45391;-75
2023/04/11 07:55:36;;;;;;;;;1.67;1.33;;;;;16.08;100.00;101318.78;5001027;28;45541;-76
2023/04/11 07:58:02;;;;;;;;;4.33;1.00;;;;;16.11;100.00;101311.91;4990762;28;45850;-75
2023/04/11 08:00:29;;;;;;;;;3.67;2.00;;;;;16.06;100.00;101309.84;4989071;28;45863;-73
2023/04/11 08:02:57;;;;;;;;;2.00;0.67;;;;;15.94;100.00;101312.53;4991434;28;45717;-75
2023/04/11 08:05:23;;;;;;;;;4.00;1.00;;;;;15.98;100.00;101313.78;4991547;28;45700;-76
2023/04/11 08:07:48;;;;;;;;;0.00;0.00;;;;;16.08;100.00;101323.44;4988047;28;45664;-75
2023/04/11 08:10:13;;;;;;;;;2.00;1.67;;;;;16.19;100.00;101331.00;5000467;28;45840;-75
2023/04/11 08:12:39;;;;;;;;;4.67;2.33;;;;;16.16;100.00;101329.53;4989569;28;45373;-74
2023/04/11 08:15:06;;;;;;;;;2.33;0.67;;;;;16.01;100.00;101335.44;5000067;28;45685;-81
2023/04/11 08:17:36;;;;;;;;;0.00;0.00;;;;;16.08;100.00;101335.38;4993741;28;45982;-74
2023/04/11 08:20:03;;;;;;;;;4.67;2.00;;;;;16.13;100.00;101326.38;4988100;28;46454;-74
2023/04/11 08:22:29;;;;;;;;;3.00;1.00;;;;;16.19;100.00;101337.34;4989946;28;45841;-74
2023/04/11 08:24:55;;;;;;;;;2.33;1.00;;;;;16.21;100.00;101337.13;4992130;28;45746;-72
2023/04/11 08:27:20;;;;;;;;;2.00;1.00;;;;;16.35;100.00;101333.13;4992081;28;45633;-73
2023/04/11 08:29:45;;;;;;;;;3.00;1.33;;;;;16.38;100.00;101329.88;4987263;28;46404;-73
2023/04/11 08:32:11;;;;;;;;;3.33;1.00;;;;;16.42;100.00;101336.66;4992558;28;45602;-80
2023/04/11 08:34:36;;;;;;;;;4.00;2.00;;;;;16.51;100.00;101330.78;4996145;28;45505;-80
2023/04/11 08:37:02;;;;;;;;;3.00;1.00;;;;;16.53;100.00;101346.09;4992824;28;45566;-78
2023/04/11 08:39:28;;;;;;;;;1.33;0.33;;;;;16.50;100.00;101345.72;4994688;28;46261;-80
2023/04/11 08:41:53;;;;;;;;;3.00;1.00;;;;;16.56;100.00;101334.53;4996413;28;45803;-81
2023/04/11 08:44:19;;;;;;;;;1.67;0.33;;;;;16.66;100.00;101339.53;4976915;28;46300;-80
2023/04/11 08:46:44;;;;;;;;;2.00;2.00;;;;;16.68;100.00;101331.81;4990655;28;45810;-80
2023/04/11 08:49:10;;;;;;;;;2.33;1.00;;;;;16.70;100.00;101335.19;4993684;28;45697;-79
2023/04/11 08:51:35;;;;;;;;;1.00;1.00;;;;;16.78;100.00;101334.00;4974778;28;45408;-81
2023/04/11 08:54:04;;;;;;;;;2.33;1.00;;;;;16.90;100.00;101325.75;4990989;28;45867;-80
2023/04/11 08:56:30;;;;;;;;;1.00;1.00;;;;;17.27;100.00;101345.00;4992279;28;45935;-73
2023/04/11 08:58:56;;;;;;;;;1.67;1.67;;;;;17.31;100.00;101354.53;4990785;28;45721;-74
2023/04/11 09:01:33;;;;;;;;;0.67;0.67;;;;;17.31;100.00;101339.84;4974581;28;45682;-74
2023/04/11 09:04:00;;;;;;;;;2.33;1.67;;;;;17.40;100.00;101336.47;4991552;28;45636;-74
2023/04/11 09:06:29;;;;;;;;;3.00;2.00;;;;;17.56;100.00;101339.59;4989222;28;45912;-75
2023/04/11 09:08:57;;;;;;;;;3.33;1.67;;;;;17.66;100.00;101339.81;4990921;28;46074;-74
2023/04/11 09:11:23;;;;;;;;;2.00;1.00;;;;;17.84;100.00;101341.63;4989234;28;46165;-75
2023/04/11 09:14:06;;;;;;;;;4.00;2.00;;;;;17.89;100.00;101335.34;4992094;28;45466;-74
2023/04/11 09:16:31;;;;;;;;;1.00;1.00;;;;;17.95;100.00;101339.97;4991478;28;46233;-74
2023/04/11 09:18:57;;;;;;;;;3.00;2.00;;;;;18.05;100.00;101337.41;4972770;28;47649;-75
2023/04/11 09:21:22;;;;;;;;;1.33;1.00;;;;;18.03;100.00;101330.44;4982537;28;45480;-74
2023/04/11 09:23:48;;;;;;;;;1.00;1.00;;;;;18.16;100.00;101328.22;4983853;28;45786;-75
2023/04/11 09:26:24;;;;;;;;;1.33;1.33;;;;;18.35;100.00;101340.00;4987952;28;45900;-76
2023/04/11 09:28:53;;;;;;;;;2.67;2.00;;;;;18.51;100.00;101334.75;4987593;28;48451;-75
2023/04/11 09:31:38;;;;;;;;;1.00;1.00;;;;;18.48;100.00;101329.69;4984083;28;45853;-75
2023/04/11 09:34:04;;;;;;;;;2.00;1.00;;;;;18.54;100.00;101334.25;4980030;28;45872;-76
2023/04/11 09:36:29;;;;;;;;;2.67;1.67;;;;;18.62;100.00;101341.31;4978926;28;45418;-78
2023/04/11 09:38:56;;;;;;;;;2.00;2.00;;;;;18.74;100.00;101346.84;4990406;28;46985;-74
2023/04/11 09:41:37;;;;;;;;;1.00;1.00;;;;;18.78;100.00;101345.25;4992612;28;45831;-74
2023/04/11 09:44:03;;;;;;;;;2.75;0.25;;;;;18.64;100.00;101350.28;4991606;28;45691;-75
2023/04/11 09:46:28;;;;;;;;;1.33;1.00;;;;;18.58;99.53;101332.66;4992182;28;45710;-74
2023/04/11 09:48:54;;;;;;;;;1.00;1.00;;;;;18.58;100.00;101329.03;4986465;28;45405;-73
2023/04/11 09:51:21;;;;;;;;;2.00;1.00;;;;;18.69;100.00;101328.97;4966381;28;45723;-74
2023/04/11 09:53:46;;;;;;;;;4.00;1.00;;;;;18.66;100.00;101325.84;4979722;28;45973;-74
2023/04/11 09:56:12;;;;;;;;;3.00;0.67;;;;;18.61;100.00;101336.88;4991167;28;46300;-77
2023/04/11 09:58:39;;;;;;;;;4.00;0.75;;;;;18.67;97.76;101320.03;4991338;28;46003;-77
2023/04/11 10:01:07;;;;;;;;;2.50;1.00;;;;;18.68;95.70;101324.53;4991784;28;45693;-75
2023/04/11 10:03:34;;;;;;;;;0.00;0.00;;;;;18.59;95.96;101319.59;4992080;28;45658;-75
2023/04/11 10:06:03;;;;;;;;;3.50;1.00;;;;;18.73;95.23;101332.09;4999260;28;45549;-75
2023/04/11 10:08:35;;;;;;;;;2.67;0.33;;;;;18.63;96.26;101315.25;5000890;28;47538;-75
2023/04/11 10:11:08;;;;;;;;;3.00;0.00;;;;;18.89;95.57;101338.81;5003171;28;45525;-74
2023/04/11 10:13:41;;;;;;;;;1.50;1.50;;;;;19.29;93.88;101337.84;5004735;28;45464;-76
2023/04/11 10:16:18;;;;;;;;;0.50;0.50;;;;;19.89;92.17;101333.47;4982383;28;46556;-77
2023/04/11 10:18:49;;;;;;;;;2.00;2.00;;;;;20.43;89.41;101320.78;4991354;28;45769;-77
2023/04/11 10:21:45;;;;;;;;;0.25;0.25;;;;;20.98;88.02;101316.09;4973270;28;45472;-77
2023/04/11 10:24:19;;;;;;;;;3.25;0.50;;;;;21.59;85.37;101290.63;4977086;28;45678;-76
2023/04/11 10:26:52;;;;;;;;;0.25;0.00;;;;;21.91;82.20;101306.44;4973702;28;45896;-74
2023/04/11 10:29:33;;;;;;;;;4.25;1.00;;;;;21.97;80.58;101304.53;4985723;28;47372;-74
2023/04/11 10:32:14;;;;;;;;;5.50;3.00;;;;;21.97;78.19;101299.75;4983616;28;45694;-77
2023/04/11 10:34:59;;;;;;;;;2.25;1.00;;;;;22.03;78.77;101298.66;4973153;28;46139;-76
2023/04/11 10:37:33;;;;;;;;;1.00;1.00;;;;;22.33;76.55;101302.72;4999117;28;45860;-74
2023/04/11 10:40:11;;;;;;;;;1.75;1.50;;;;;22.32;74.83;101305.78;4982499;28;46421;-72
2023/04/11 10:42:45;;;;;;;;;1.00;1.00;;;;;22.30;72.97;101292.06;4986810;28;45955;-73
2023/04/11 10:45:25;;;;;;;;;1.75;1.00;;;;;22.50;72.70;101288.53;4981656;28;45591;-75
2023/04/11 10:47:51;;;;;;;;;2.00;0.00;;;;;22.62;71.61;101265.06;4992972;28;45553;-76
2023/04/11 10:50:22;;;;;;;;;1.25;1.25;;;;;22.78;71.52;101286.31;4990649;28;46383;-76
2023/04/11 10:52:48;;;;;;;;;3.00;1.00;;;;;22.86;70.18;101290.53;4989547;28;45809;-76
2023/04/11 10:55:16;;;;;;;;;0.00;0.00;;;;;22.80;69.54;101283.25;4987138;28;45487;-78
2023/04/11 10:58:25;;;;;;;;;1.25;0.00;;;;;22.50;68.32;101291.34;5094679;22;46361;-78
2023/04/11 11:01:14;;;;;;;;;5.00;1.25;;;;;22.38;69.26;101287.94;5013047;28;45723;-75
2023/04/11 11:03:40;;;;;;;;;1.50;1.50;;;;;22.29;67.73;101282.03;5014036;28;45604;-78
2023/04/11 11:06:13;;;;;;;;;0.25;0.25;;;;;22.21;67.86;101271.38;5004020;28;45804;-80
2023/04/11 11:08:45;;;;;;;;;0.75;0.00;;;;;22.08;67.51;101266.28;4989816;28;47212;-82
2023/04/11 11:11:12;;;;;;;;;2.50;1.75;;;;;21.96;68.55;101245.03;5009480;28;46300;-82
2023/04/11 11:13:54;;;;;;;;;0.75;0.75;;;;;21.77;70.11;101246.63;5006762;28;45690;-81
2023/04/11 11:16:22;;;;;;;;;1.00;1.00;;;;;21.56;69.88;101243.72;5005970;28;45404;-81